sensor_id;sensor_type;location;lat;lon;timestamp;P1;P2;P0
60245;PMS5003;46107;53.356;-1.524;2022-07-04T00:02:26;3;3;
60245;PMS5003;46107;53.356;-1.524;2022-07-04T00:04:53;3;3;
60245;PMS5003;46107;53.356;-1.524;2022-07-04T00:07:21;3;3;
60245;PMS5003;46107;53.356;-1.524;2022-07-04T00:09:48;2;2;
60245;PMS5003;46107;53.356;-1.524;2022-07-04T00:12:16;3;3;
60245;PMS5003;46107;53.356;-1.524;2022-07-04T00:14:43;4;3;
60245;PMS5003;46107;53.356;-1.524;2022-07-04T00:17:11;3;3;
60245;PMS5003;46107;53.356;-1.524;2022-07-04T00:19:38;3;3;
60245;PMS5003;46107;53.356;-1.524;2022-07-04T00:22:05;4;4;
60245;PMS5003;46107;53.356;-1.524;2022-07-04T00:24:33;3;3;
60245;PMS5003;46107;53.356;-1.524;2022-07-04T00:27:00;3;3;
60245;PMS5003;46107;53.356;-1.524;2022-07-04T00:29:28;5;3;
60245;PMS5003;46107;53.356;-1.524;2022-07-04T00:31:55;3;2;
60245;PMS5003;46107;53.356;-1.524;2022-07-04T00:34:23;4;3;
60245;PMS5003;46107;53.356;-1.524;2022-07-04T00:36:50;3;3;
60245;PMS5003;46107;53.356;-1.524;2022-07-04T00:39:18;3;3;
60245;PMS5003;46107;53.356;-1.524;2022-07-04T00:41:45;1;1;
60245;PMS5003;46107;53.356;-1.524;2022-07-04T00:44:13;1;1;
60245;PMS5003;46107;53.356;-1.524;2022-07-04T00:46:42;3;3;
60245;PMS5003;46107;53.356;-1.524;2022-07-04T00:49:12;4;3;
60245;PMS5003;46107;53.356;-1.524;2022-07-04T00:51:41;3;3;
60245;PMS5003;46107;53.356;-1.524;2022-07-04T00:54:11;2;2;
60245;PMS5003;46107;53.356;-1.524;2022-07-04T00:56:40;3;2;
60245;PMS5003;46107;53.356;-1.524;2022-07-04T00:59:09;3;2;
60245;PMS5003;46107;53.356;-1.524;2022-07-04T01:01:37;2;2;
60245;PMS5003;46107;53.356;-1.524;2022-07-04T01:04:05;3;2;
60245;PMS5003;46107;53.356;-1.524;2022-07-04T01:06:34;4;4;
60245;PMS5003;46107;53.356;-1.524;2022-07-04T01:09:01;2;2;
60245;PMS5003;46107;53.356;-1.524;2022-07-04T01:11:28;3;3;
60245;PMS5003;46107;53.356;-1.524;2022-07-04T01:13:56;1;1;
60245;PMS5003;46107;53.356;-1.524;2022-07-04T01:16:24;3;2;
60245;PMS5003;46107;53.356;-1.524;2022-07-04T01:18:52;2;2;
60245;PMS5003;46107;53.356;-1.524;2022-07-04T01:21:20;3;3;
60245;PMS5003;46107;53.356;-1.524;2022-07-04T01:23:47;3;3;
60245;PMS5003;46107;53.356;-1.524;2022-07-04T01:26:15;2;2;
60245;PMS5003;46107;53.356;-1.524;2022-07-04T01:28:43;2;2;
60245;PMS5003;46107;53.356;-1.524;2022-07-04T01:31:11;4;3;
60245;PMS5003;46107;53.356;-1.524;2022-07-04T01:33:38;5;4;
60245;PMS5003;46107;53.356;-1.524;2022-07-04T01:36:07;4;3;
60245;PMS5003;46107;53.356;-1.524;2022-07-04T01:38:34;4;2;
60245;PMS5003;46107;53.356;-1.524;2022-07-04T01:41:02;2;2;
60245;PMS5003;46107;53.356;-1.524;2022-07-04T01:43:30;4;4;
60245;PMS5003;46107;53.356;-1.524;2022-07-04T01:45:57;2;2;
60245;PMS5003;46107;53.356;-1.524;2022-07-04T01:48:25;7;5;
60245;PMS5003;46107;53.356;-1.524;2022-07-04T01:50:53;3;3;
60245;PMS5003;46107;53.356;-1.524;2022-07-04T01:53:20;3;3;
60245;PMS5003;46107;53.356;-1.524;2022-07-04T01:55:48;3;2;
60245;PMS5003;46107;53.356;-1.524;2022-07-04T01:58:15;3;1;
60245;PMS5003;46107;53.356;-1.524;2022-07-04T02:00:43;2;2;
60245;PMS5003;46107;53.356;-1.524;2022-07-04T02:03:10;2;2;
60245;PMS5003;46107;53.356;-1.524;2022-07-04T02:05:38;3;3;
60245;PMS5003;46107;53.356;-1.524;2022-07-04T02:08:06;3;3;
60245;PMS5003;46107;53.356;-1.524;2022-07-04T02:10:34;2;2;
60245;PMS5003;46107;53.356;-1.524;2022-07-04T02:13:02;3;3;
60245;PMS5003;46107;53.356;-1.524;2022-07-04T02:15:30;2;2;
60245;PMS5003;46107;53.356;-1.524;2022-07-04T02:18:00;2;2;
60245;PMS5003;46107;53.356;-1.524;2022-07-04T02:20:29;2;2;
60245;PMS5003;46107;53.356;-1.524;2022-07-04T02:22:57;2;2;
60245;PMS5003;46107;53.356;-1.524;2022-07-04T02:25:24;2;2;
60245;PMS5003;46107;53.356;-1.524;2022-07-04T02:27:52;3;2;
60245;PMS5003;46107;53.356;-1.524;2022-07-04T02:30:20;3;3;
60245;PMS5003;46107;53.356;-1.524;2022-07-04T02:32:48;1;1;
60245;PMS5003;46107;53.356;-1.524;2022-07-04T02:35:15;3;3;
60245;PMS5003;46107;53.356;-1.524;2022-07-04T02:37:43;4;4;
60245;PMS5003;46107;53.356;-1.524;2022-07-04T02:40:10;3;3;
60245;PMS5003;46107;53.356;-1.524;2022-07-04T02:42:38;6;3;
60245;PMS5003;46107;53.356;-1.524;2022-07-04T02:45:06;4;4;
60245;PMS5003;46107;53.356;-1.524;2022-07-04T02:47:34;5;4;
60245;PMS5003;46107;53.356;-1.524;2022-07-04T02:50:02;5;2;
60245;PMS5003;46107;53.356;-1.524;2022-07-04T02:52:29;4;4;
60245;PMS5003;46107;53.356;-1.524;2022-07-04T02:54:57;5;5;
60245;PMS5003;46107;53.356;-1.524;2022-07-04T02:57:24;3;3;
60245;PMS5003;46107;53.356;-1.524;2022-07-04T02:59:52;3;3;
60245;PMS5003;46107;53.356;-1.524;2022-07-04T03:02:19;4;2;
60245;PMS5003;46107;53.356;-1.524;2022-07-04T03:04:47;3;3;
60245;PMS5003;46107;53.356;-1.524;2022-07-04T03:07:14;3;3;
60245;PMS5003;46107;53.356;-1.524;2022-07-04T03:09:41;5;3;
60245;PMS5003;46107;53.356;-1.524;2022-07-04T03:12:09;4;3;
60245;PMS5003;46107;53.356;-1.524;2022-07-04T03:14:36;2;2;
60245;PMS5003;46107;53.356;-1.524;2022-07-04T03:17:04;6;6;
60245;PMS5003;46107;53.356;-1.524;2022-07-04T03:19:31;3;3;
60245;PMS5003;46107;53.356;-1.524;2022-07-04T03:21:59;2;2;
60245;PMS5003;46107;53.356;-1.524;2022-07-04T03:24:26;3;3;
60245;PMS5003;46107;53.356;-1.524;2022-07-04T03:26:53;3;3;
60245;PMS5003;46107;53.356;-1.524;2022-07-04T03:29:21;3;3;
60245;PMS5003;46107;53.356;-1.524;2022-07-04T03:31:48;4;4;
60245;PMS5003;46107;53.356;-1.524;2022-07-04T03:34:16;4;4;
60245;PMS5003;46107;53.356;-1.524;2022-07-04T03:36:43;3;3;
60245;PMS5003;46107;53.356;-1.524;2022-07-04T03:39:11;4;4;
60245;PMS5003;46107;53.356;-1.524;2022-07-04T03:41:39;6;5;
60245;PMS5003;46107;53.356;-1.524;2022-07-04T03:44:08;3;3;
60245;PMS5003;46107;53.356;-1.524;2022-07-04T03:46:35;4;4;
60245;PMS5003;46107;53.356;-1.524;2022-07-04T03:49:02;3;3;
60245;PMS5003;46107;53.356;-1.524;2022-07-04T03:51:30;4;4;
60245;PMS5003;46107;53.356;-1.524;2022-07-04T03:53:59;4;3;
60245;PMS5003;46107;53.356;-1.524;2022-07-04T03:56:26;3;3;
60245;PMS5003;46107;53.356;-1.524;2022-07-04T03:58:54;3;3;
60245;PMS5003;46107;53.356;-1.524;2022-07-04T04:01:21;4;4;
60245;PMS5003;46107;53.356;-1.524;2022-07-04T04:03:49;7;6;
60245;PMS5003;46107;53.356;-1.524;2022-07-04T04:06:16;2;2;
60245;PMS5003;46107;53.356;-1.524;2022-07-04T04:08:44;5;5;
60245;PMS5003;46107;53.356;-1.524;2022-07-04T04:11:11;5;5;
60245;PMS5003;46107;53.356;-1.524;2022-07-04T04:13:39;7;7;
60245;PMS5003;46107;53.356;-1.524;2022-07-04T04:16:06;10;9;
60245;PMS5003;46107;53.356;-1.524;2022-07-04T04:18:33;12;12;
60245;PMS5003;46107;53.356;-1.524;2022-07-04T04:21:02;12;12;
60245;PMS5003;46107;53.356;-1.524;2022-07-04T04:23:29;17;15;
60245;PMS5003;46107;53.356;-1.524;2022-07-04T04:25:57;14;13;
60245;PMS5003;46107;53.356;-1.524;2022-07-04T04:28:24;13;12;
60245;PMS5003;46107;53.356;-1.524;2022-07-04T04:30:52;11;11;
60245;PMS5003;46107;53.356;-1.524;2022-07-04T04:33:19;12;12;
60245;PMS5003;46107;53.356;-1.524;2022-07-04T04:35:47;12;11;
60245;PMS5003;46107;53.356;-1.524;2022-07-04T04:38:15;10;10;
60245;PMS5003;46107;53.356;-1.524;2022-07-04T04:40:43;11;9;
60245;PMS5003;46107;53.356;-1.524;2022-07-04T04:43:10;9;9;
60245;PMS5003;46107;53.356;-1.524;2022-07-04T04:45:38;9;9;
60245;PMS5003;46107;53.356;-1.524;2022-07-04T04:48:05;10;9;
60245;PMS5003;46107;53.356;-1.524;2022-07-04T04:50:33;8;7;
60245;PMS5003;46107;53.356;-1.524;2022-07-04T04:53:00;9;9;
60245;PMS5003;46107;53.356;-1.524;2022-07-04T04:55:28;10;10;
60245;PMS5003;46107;53.356;-1.524;2022-07-04T04:57:55;10;8;
60245;PMS5003;46107;53.356;-1.524;2022-07-04T05:00:23;6;5;
60245;PMS5003;46107;53.356;-1.524;2022-07-04T05:02:50;5;5;
60245;PMS5003;46107;53.356;-1.524;2022-07-04T05:05:18;8;5;
60245;PMS5003;46107;53.356;-1.524;2022-07-04T05:07:45;5;5;
60245;PMS5003;46107;53.356;-1.524;2022-07-04T05:10:13;8;8;
60245;PMS5003;46107;53.356;-1.524;2022-07-04T05:12:40;8;6;
60245;PMS5003;46107;53.356;-1.524;2022-07-04T05:15:08;7;7;
60245;PMS5003;46107;53.356;-1.524;2022-07-04T05:17:36;8;8;
60245;PMS5003;46107;53.356;-1.524;2022-07-04T05:20:04;9;9;
60245;PMS5003;46107;53.356;-1.524;2022-07-04T05:22:32;8;8;
60245;PMS5003;46107;53.356;-1.524;2022-07-04T05:25:00;7;7;
60245;PMS5003;46107;53.356;-1.524;2022-07-04T05:27:28;8;8;
60245;PMS5003;46107;53.356;-1.524;2022-07-04T05:29:55;11;9;
60245;PMS5003;46107;53.356;-1.524;2022-07-04T05:32:23;8;8;
60245;PMS5003;46107;53.356;-1.524;2022-07-04T05:34:50;8;8;
60245;PMS5003;46107;53.356;-1.524;2022-07-04T05:37:18;8;8;
60245;PMS5003;46107;53.356;-1.524;2022-07-04T05:39:45;10;10;
60245;PMS5003;46107;53.356;-1.524;2022-07-04T05:42:13;13;10;
60245;PMS5003;46107;53.356;-1.524;2022-07-04T05:44:40;9;8;
60245;PMS5003;46107;53.356;-1.524;2022-07-04T05:47:08;9;7;
60245;PMS5003;46107;53.356;-1.524;2022-07-04T05:49:36;9;6;
60245;PMS5003;46107;53.356;-1.524;2022-07-04T05:52:04;8;6;
60245;PMS5003;46107;53.356;-1.524;2022-07-04T05:54:31;4;4;
60245;PMS5003;46107;53.356;-1.524;2022-07-04T05:56:59;5;5;
60245;PMS5003;46107;53.356;-1.524;2022-07-04T05:59:26;8;8;
60245;PMS5003;46107;53.356;-1.524;2022-07-04T06:01:54;7;6;
60245;PMS5003;46107;53.356;-1.524;2022-07-04T06:04:21;7;6;
60245;PMS5003;46107;53.356;-1.524;2022-07-04T06:06:48;11;11;
60245;PMS5003;46107;53.356;-1.524;2022-07-04T06:09:16;10;10;
60245;PMS5003;46107;53.356;-1.524;2022-07-04T06:11:43;10;10;
60245;PMS5003;46107;53.356;-1.524;2022-07-04T06:14:16;12;12;
60245;PMS5003;46107;53.356;-1.524;2022-07-04T06:16:43;17;14;
60245;PMS5003;46107;53.356;-1.524;2022-07-04T06:19:11;14;14;
60245;PMS5003;46107;53.356;-1.524;2022-07-04T06:21:38;16;16;
60245;PMS5003;46107;53.356;-1.524;2022-07-04T06:24:05;15;14;
60245;PMS5003;46107;53.356;-1.524;2022-07-04T06:26:32;13;13;
60245;PMS5003;46107;53.356;-1.524;2022-07-04T06:29:00;15;14;
60245;PMS5003;46107;53.356;-1.524;2022-07-04T06:31:27;13;12;
60245;PMS5003;46107;53.356;-1.524;2022-07-04T06:33:55;14;14;
60245;PMS5003;46107;53.356;-1.524;2022-07-04T06:36:22;10;10;
60245;PMS5003;46107;53.356;-1.524;2022-07-04T06:38:50;9;9;
60245;PMS5003;46107;53.356;-1.524;2022-07-04T06:41:17;12;11;
60245;PMS5003;46107;53.356;-1.524;2022-07-04T06:43:45;11;9;
60245;PMS5003;46107;53.356;-1.524;2022-07-04T06:46:12;8;8;
60245;PMS5003;46107;53.356;-1.524;2022-07-04T06:48:40;9;8;
60245;PMS5003;46107;53.356;-1.524;2022-07-04T06:51:12;8;8;
60245;PMS5003;46107;53.356;-1.524;2022-07-04T06:53:40;6;4;
60245;PMS5003;46107;53.356;-1.524;2022-07-04T06:56:07;5;5;
60245;PMS5003;46107;53.356;-1.524;2022-07-04T06:58:34;5;5;
60245;PMS5003;46107;53.356;-1.524;2022-07-04T07:01:02;5;5;
60245;PMS5003;46107;53.356;-1.524;2022-07-04T07:03:29;2;2;
60245;PMS5003;46107;53.356;-1.524;2022-07-04T07:05:57;3;1;
60245;PMS5003;46107;53.356;-1.524;2022-07-04T07:08:24;1;1;
60245;PMS5003;46107;53.356;-1.524;2022-07-04T07:10:52;0;0;
60245;PMS5003;46107;53.356;-1.524;2022-07-04T07:13:19;1;1;
60245;PMS5003;46107;53.356;-1.524;2022-07-04T07:15:47;3;3;
60245;PMS5003;46107;53.356;-1.524;2022-07-04T07:18:14;2;1;
60245;PMS5003;46107;53.356;-1.524;2022-07-04T07:20:42;2;1;
60245;PMS5003;46107;53.356;-1.524;2022-07-04T07:23:09;1;1;
60245;PMS5003;46107;53.356;-1.524;2022-07-04T07:25:37;1;1;
60245;PMS5003;46107;53.356;-1.524;2022-07-04T07:28:04;1;1;
60245;PMS5003;46107;53.356;-1.524;2022-07-04T07:30:34;3;3;
60245;PMS5003;46107;53.356;-1.524;2022-07-04T07:33:02;3;3;
60245;PMS5003;46107;53.356;-1.524;2022-07-04T07:35:29;4;4;
60245;PMS5003;46107;53.356;-1.524;2022-07-04T07:37:57;5;5;
60245;PMS5003;46107;53.356;-1.524;2022-07-04T07:40:24;6;5;
60245;PMS5003;46107;53.356;-1.524;2022-07-04T07:42:52;6;6;
60245;PMS5003;46107;53.356;-1.524;2022-07-04T07:45:19;5;5;
60245;PMS5003;46107;53.356;-1.524;2022-07-04T07:47:47;3;3;
60245;PMS5003;46107;53.356;-1.524;2022-07-04T07:50:15;6;6;
60245;PMS5003;46107;53.356;-1.524;2022-07-04T07:52:42;2;2;
60245;PMS5003;46107;53.356;-1.524;2022-07-04T07:55:10;5;3;
60245;PMS5003;46107;53.356;-1.524;2022-07-04T07:57:37;3;3;
60245;PMS5003;46107;53.356;-1.524;2022-07-04T08:00:05;2;2;
60245;PMS5003;46107;53.356;-1.524;2022-07-04T08:02:34;2;2;
60245;PMS5003;46107;53.356;-1.524;2022-07-04T08:05:01;2;2;
60245;PMS5003;46107;53.356;-1.524;2022-07-04T08:07:29;3;3;
60245;PMS5003;46107;53.356;-1.524;2022-07-04T08:09:56;2;2;
60245;PMS5003;46107;53.356;-1.524;2022-07-04T08:12:24;4;3;
60245;PMS5003;46107;53.356;-1.524;2022-07-04T08:14:51;5;5;
60245;PMS5003;46107;53.356;-1.524;2022-07-04T08:17:19;6;5;
60245;PMS5003;46107;53.356;-1.524;2022-07-04T08:19:46;3;3;
60245;PMS5003;46107;53.356;-1.524;2022-07-04T08:22:14;4;4;
60245;PMS5003;46107;53.356;-1.524;2022-07-04T08:24:41;4;3;
60245;PMS5003;46107;53.356;-1.524;2022-07-04T08:27:10;4;2;
60245;PMS5003;46107;53.356;-1.524;2022-07-04T08:29:38;4;1;
60245;PMS5003;46107;53.356;-1.524;2022-07-04T08:32:05;1;1;
60245;PMS5003;46107;53.356;-1.524;2022-07-04T08:34:33;2;2;
60245;PMS5003;46107;53.356;-1.524;2022-07-04T08:37:00;1;1;
60245;PMS5003;46107;53.356;-1.524;2022-07-04T08:39:28;3;2;
60245;PMS5003;46107;53.356;-1.524;2022-07-04T08:41:55;1;1;
60245;PMS5003;46107;53.356;-1.524;2022-07-04T08:44:30;2;2;
60245;PMS5003;46107;53.356;-1.524;2022-07-04T08:46:57;2;2;
60245;PMS5003;46107;53.356;-1.524;2022-07-04T08:49:27;2;2;
60245;PMS5003;46107;53.356;-1.524;2022-07-04T08:51:58;1;1;
60245;PMS5003;46107;53.356;-1.524;2022-07-04T08:54:28;3;3;
60245;PMS5003;46107;53.356;-1.524;2022-07-04T08:56:57;4;3;
60245;PMS5003;46107;53.356;-1.524;2022-07-04T08:59:25;1;1;
60245;PMS5003;46107;53.356;-1.524;2022-07-04T09:01:52;1;1;
60245;PMS5003;46107;53.356;-1.524;2022-07-04T09:04:20;2;2;
60245;PMS5003;46107;53.356;-1.524;2022-07-04T09:06:48;2;2;
60245;PMS5003;46107;53.356;-1.524;2022-07-04T09:09:18;1;1;
60245;PMS5003;46107;53.356;-1.524;2022-07-04T09:11:46;1;0;
60245;PMS5003;46107;53.356;-1.524;2022-07-04T09:14:13;3;3;
60245;PMS5003;46107;53.356;-1.524;2022-07-04T09:16:40;1;1;
60245;PMS5003;46107;53.356;-1.524;2022-07-04T09:19:08;0;0;
60245;PMS5003;46107;53.356;-1.524;2022-07-04T09:21:45;1;1;
60245;PMS5003;46107;53.356;-1.524;2022-07-04T09:24:13;1;1;
60245;PMS5003;46107;53.356;-1.524;2022-07-04T09:26:40;0;0;
60245;PMS5003;46107;53.356;-1.524;2022-07-04T09:29:12;1;1;
60245;PMS5003;46107;53.356;-1.524;2022-07-04T09:31:40;0;0;
60245;PMS5003;46107;53.356;-1.524;2022-07-04T09:34:07;2;2;
60245;PMS5003;46107;53.356;-1.524;2022-07-04T09:36:38;1;1;
60245;PMS5003;46107;53.356;-1.524;2022-07-04T09:39:09;0;0;
60245;PMS5003;46107;53.356;-1.524;2022-07-04T09:41:55;1;1;
60245;PMS5003;46107;53.356;-1.524;2022-07-04T09:44:43;1;1;
60245;PMS5003;46107;53.356;-1.524;2022-07-04T09:47:19;1;1;
60245;PMS5003;46107;53.356;-1.524;2022-07-04T09:49:57;0;0;
60245;PMS5003;46107;53.356;-1.524;2022-07-04T09:52:25;0;0;
60245;PMS5003;46107;53.356;-1.524;2022-07-04T09:54:52;1;1;
60245;PMS5003;46107;53.356;-1.524;2022-07-04T09:57:24;0;0;
60245;PMS5003;46107;53.356;-1.524;2022-07-04T09:59:51;0;0;
60245;PMS5003;46107;53.356;-1.524;2022-07-04T10:02:19;1;1;
60245;PMS5003;46107;53.356;-1.524;2022-07-04T10:04:48;0;0;
60245;PMS5003;46107;53.356;-1.524;2022-07-04T10:07:33;1;1;
60245;PMS5003;46107;53.356;-1.524;2022-07-04T10:10:02;1;1;
60245;PMS5003;46107;53.356;-1.524;2022-07-04T10:12:48;1;1;
60245;PMS5003;46107;53.356;-1.524;2022-07-04T10:15:15;1;1;
60245;PMS5003;46107;53.356;-1.524;2022-07-04T10:17:42;0;0;
60245;PMS5003;46107;53.356;-1.524;2022-07-04T10:20:11;1;1;
60245;PMS5003;46107;53.356;-1.524;2022-07-04T10:22:38;2;0;
60245;PMS5003;46107;53.356;-1.524;2022-07-04T10:25:07;0;0;
60245;PMS5003;46107;53.356;-1.524;2022-07-04T10:27:36;2;0;
60245;PMS5003;46107;53.356;-1.524;2022-07-04T10:30:05;2;0;
60245;PMS5003;46107;53.356;-1.524;2022-07-04T10:32:36;1;1;
60245;PMS5003;46107;53.356;-1.524;2022-07-04T10:35:04;2;2;
60245;PMS5003;46107;53.356;-1.524;2022-07-04T10:38:07;2;2;
60245;PMS5003;46107;53.356;-1.524;2022-07-04T10:40:43;2;2;
60245;PMS5003;46107;53.356;-1.524;2022-07-04T10:44:03;2;2;
60245;PMS5003;46107;53.356;-1.524;2022-07-04T10:46:32;2;2;
60245;PMS5003;46107;53.356;-1.524;2022-07-04T10:49:03;1;1;
60245;PMS5003;46107;53.356;-1.524;2022-07-04T10:51:33;3;1;
60245;PMS5003;46107;53.356;-1.524;2022-07-04T10:54:04;0;0;
60245;PMS5003;46107;53.356;-1.524;2022-07-04T10:56:36;2;2;
60245;PMS5003;46107;53.356;-1.524;2022-07-04T10:59:10;2;2;
60245;PMS5003;46107;53.356;-1.524;2022-07-04T11:01:40;2;2;
60245;PMS5003;46107;53.356;-1.524;2022-07-04T11:04:13;4;4;
60245;PMS5003;46107;53.356;-1.524;2022-07-04T11:07:10;1;1;
60245;PMS5003;46107;53.356;-1.524;2022-07-04T11:09:38;0;0;
60245;PMS5003;46107;53.356;-1.524;2022-07-04T11:12:06;2;2;
60245;PMS5003;46107;53.356;-1.524;2022-07-04T11:14:35;1;1;
60245;PMS5003;46107;53.356;-1.524;2022-07-04T11:17:05;0;0;
60245;PMS5003;46107;53.356;-1.524;2022-07-04T11:19:34;1;1;
60245;PMS5003;46107;53.356;-1.524;2022-07-04T11:22:02;0;0;
60245;PMS5003;46107;53.356;-1.524;2022-07-04T11:24:30;2;2;
60245;PMS5003;46107;53.356;-1.524;2022-07-04T11:26:59;2;1;
60245;PMS5003;46107;53.356;-1.524;2022-07-04T11:29:28;2;1;
60245;PMS5003;46107;53.356;-1.524;2022-07-04T11:31:56;0;0;
60245;PMS5003;46107;53.356;-1.524;2022-07-04T11:34:24;0;0;
60245;PMS5003;46107;53.356;-1.524;2022-07-04T11:36:57;1;1;
60245;PMS5003;46107;53.356;-1.524;2022-07-04T11:39:24;1;1;
60245;PMS5003;46107;53.356;-1.524;2022-07-04T11:41:52;1;1;
60245;PMS5003;46107;53.356;-1.524;2022-07-04T11:44:21;0;0;
60245;PMS5003;46107;53.356;-1.524;2022-07-04T11:46:49;0;0;
60245;PMS5003;46107;53.356;-1.524;2022-07-04T11:49:17;1;1;
60245;PMS5003;46107;53.356;-1.524;2022-07-04T11:51:46;1;1;
60245;PMS5003;46107;53.356;-1.524;2022-07-04T11:54:14;0;0;
60245;PMS5003;46107;53.356;-1.524;2022-07-04T11:56:41;0;0;
60245;PMS5003;46107;53.356;-1.524;2022-07-04T11:59:10;1;1;
60245;PMS5003;46107;53.356;-1.524;2022-07-04T12:01:40;1;1;
60245;PMS5003;46107;53.356;-1.524;2022-07-04T12:04:16;1;1;
60245;PMS5003;46107;53.356;-1.524;2022-07-04T12:06:45;3;2;
60245;PMS5003;46107;53.356;-1.524;2022-07-04T12:09:14;1;1;
60245;PMS5003;46107;53.356;-1.524;2022-07-04T12:11:50;1;1;
60245;PMS5003;46107;53.356;-1.524;2022-07-04T12:14:19;1;1;
60245;PMS5003;46107;53.356;-1.524;2022-07-04T12:16:47;1;1;
60245;PMS5003;46107;53.356;-1.524;2022-07-04T12:19:14;1;1;
60245;PMS5003;46107;53.356;-1.524;2022-07-04T12:21:42;2;2;
60245;PMS5003;46107;53.356;-1.524;2022-07-04T12:24:11;1;1;
60245;PMS5003;46107;53.356;-1.524;2022-07-04T12:26:46;2;2;
60245;PMS5003;46107;53.356;-1.524;2022-07-04T12:29:21;2;2;
60245;PMS5003;46107;53.356;-1.524;2022-07-04T12:31:51;2;1;
60245;PMS5003;46107;53.356;-1.524;2022-07-04T12:34:24;2;2;
60245;PMS5003;46107;53.356;-1.524;2022-07-04T12:36:52;2;2;
60245;PMS5003;46107;53.356;-1.524;2022-07-04T12:39:36;4;3;
60245;PMS5003;46107;53.356;-1.524;2022-07-04T12:42:05;1;1;
60245;PMS5003;46107;53.356;-1.524;2022-07-04T12:44:34;2;2;
60245;PMS5003;46107;53.356;-1.524;2022-07-04T12:47:02;1;1;
60245;PMS5003;46107;53.356;-1.524;2022-07-04T12:49:30;2;2;
60245;PMS5003;46107;53.356;-1.524;2022-07-04T12:52:06;0;0;
60245;PMS5003;46107;53.356;-1.524;2022-07-04T12:54:36;2;2;
60245;PMS5003;46107;53.356;-1.524;2022-07-04T12:57:04;3;2;
60245;PMS5003;46107;53.356;-1.524;2022-07-04T12:59:33;1;1;
60245;PMS5003;46107;53.356;-1.524;2022-07-04T13:02:00;1;1;
60245;PMS5003;46107;53.356;-1.524;2022-07-04T13:04:29;1;1;
60245;PMS5003;46107;53.356;-1.524;2022-07-04T13:06:56;2;1;
60245;PMS5003;46107;53.356;-1.524;2022-07-04T13:09:24;1;1;
60245;PMS5003;46107;53.356;-1.524;2022-07-04T13:11:51;1;1;
60245;PMS5003;46107;53.356;-1.524;2022-07-04T13:14:19;1;0;
60245;PMS5003;46107;53.356;-1.524;2022-07-04T13:16:46;1;1;
60245;PMS5003;46107;53.356;-1.524;2022-07-04T13:19:14;0;0;
60245;PMS5003;46107;53.356;-1.524;2022-07-04T13:21:41;1;1;
60245;PMS5003;46107;53.356;-1.524;2022-07-04T13:24:09;2;1;
60245;PMS5003;46107;53.356;-1.524;2022-07-04T13:26:36;1;1;
60245;PMS5003;46107;53.356;-1.524;2022-07-04T13:29:04;1;1;
60245;PMS5003;46107;53.356;-1.524;2022-07-04T13:31:31;1;1;
60245;PMS5003;46107;53.356;-1.524;2022-07-04T13:33:59;3;2;
60245;PMS5003;46107;53.356;-1.524;2022-07-04T13:36:27;1;1;
60245;PMS5003;46107;53.356;-1.524;2022-07-04T13:38:54;1;1;
60245;PMS5003;46107;53.356;-1.524;2022-07-04T13:41:22;0;0;
60245;PMS5003;46107;53.356;-1.524;2022-07-04T13:43:50;1;1;
60245;PMS5003;46107;53.356;-1.524;2022-07-04T13:46:17;0;0;
60245;PMS5003;46107;53.356;-1.524;2022-07-04T13:48:45;1;1;
60245;PMS5003;46107;53.356;-1.524;2022-07-04T13:51:12;1;1;
60245;PMS5003;46107;53.356;-1.524;2022-07-04T13:53:40;1;1;
60245;PMS5003;46107;53.356;-1.524;2022-07-04T13:56:07;2;1;
60245;PMS5003;46107;53.356;-1.524;2022-07-04T13:58:35;1;1;
60245;PMS5003;46107;53.356;-1.524;2022-07-04T14:01:02;0;0;
60245;PMS5003;46107;53.356;-1.524;2022-07-04T14:03:30;2;1;
60245;PMS5003;46107;53.356;-1.524;2022-07-04T14:05:57;1;1;
60245;PMS5003;46107;53.356;-1.524;2022-07-04T14:08:25;4;2;
60245;PMS5003;46107;53.356;-1.524;2022-07-04T14:10:52;1;1;
60245;PMS5003;46107;53.356;-1.524;2022-07-04T14:13:19;2;2;
60245;PMS5003;46107;53.356;-1.524;2022-07-04T14:15:47;2;1;
60245;PMS5003;46107;53.356;-1.524;2022-07-04T14:18:14;1;1;
60245;PMS5003;46107;53.356;-1.524;2022-07-04T14:20:43;1;1;
60245;PMS5003;46107;53.356;-1.524;2022-07-04T14:23:11;2;2;
60245;PMS5003;46107;53.356;-1.524;2022-07-04T14:25:39;3;2;
60245;PMS5003;46107;53.356;-1.524;2022-07-04T14:28:06;2;2;
60245;PMS5003;46107;53.356;-1.524;2022-07-04T14:30:33;0;0;
60245;PMS5003;46107;53.356;-1.524;2022-07-04T14:33:01;1;1;
60245;PMS5003;46107;53.356;-1.524;2022-07-04T14:35:28;1;1;
60245;PMS5003;46107;53.356;-1.524;2022-07-04T14:37:57;0;0;
60245;PMS5003;46107;53.356;-1.524;2022-07-04T14:40:24;3;1;
60245;PMS5003;46107;53.356;-1.524;2022-07-04T14:42:51;0;0;
60245;PMS5003;46107;53.356;-1.524;2022-07-04T14:45:19;2;2;
60245;PMS5003;46107;53.356;-1.524;2022-07-04T14:47:46;2;2;
60245;PMS5003;46107;53.356;-1.524;2022-07-04T14:50:17;1;0;
60245;PMS5003;46107;53.356;-1.524;2022-07-04T14:52:45;1;1;
60245;PMS5003;46107;53.356;-1.524;2022-07-04T14:55:12;0;0;
60245;PMS5003;46107;53.356;-1.524;2022-07-04T14:57:40;1;1;
60245;PMS5003;46107;53.356;-1.524;2022-07-04T15:00:07;1;1;
60245;PMS5003;46107;53.356;-1.524;2022-07-04T15:02:35;1;1;
60245;PMS5003;46107;53.356;-1.524;2022-07-04T15:05:03;1;1;
60245;PMS5003;46107;53.356;-1.524;2022-07-04T15:07:31;2;2;
60245;PMS5003;46107;53.356;-1.524;2022-07-04T15:09:59;2;1;
60245;PMS5003;46107;53.356;-1.524;2022-07-04T15:12:27;0;0;
60245;PMS5003;46107;53.356;-1.524;2022-07-04T15:14:55;0;0;
60245;PMS5003;46107;53.356;-1.524;2022-07-04T15:17:22;1;1;
60245;PMS5003;46107;53.356;-1.524;2022-07-04T15:19:49;1;1;
60245;PMS5003;46107;53.356;-1.524;2022-07-04T15:22:17;1;1;
60245;PMS5003;46107;53.356;-1.524;2022-07-04T15:24:44;1;1;
60245;PMS5003;46107;53.356;-1.524;2022-07-04T15:27:12;1;1;
60245;PMS5003;46107;53.356;-1.524;2022-07-04T15:29:39;1;1;
60245;PMS5003;46107;53.356;-1.524;2022-07-04T15:32:07;1;1;
60245;PMS5003;46107;53.356;-1.524;2022-07-04T15:34:35;2;2;
60245;PMS5003;46107;53.356;-1.524;2022-07-04T15:37:03;0;0;
60245;PMS5003;46107;53.356;-1.524;2022-07-04T15:39:30;1;1;
60245;PMS5003;46107;53.356;-1.524;2022-07-04T15:41:57;0;0;
60245;PMS5003;46107;53.356;-1.524;2022-07-04T15:44:25;0;0;
60245;PMS5003;46107;53.356;-1.524;2022-07-04T15:46:52;1;0;
60245;PMS5003;46107;53.356;-1.524;2022-07-04T15:49:21;1;1;
60245;PMS5003;46107;53.356;-1.524;2022-07-04T15:51:50;2;0;
60245;PMS5003;46107;53.356;-1.524;2022-07-04T15:54:18;1;1;
60245;PMS5003;46107;53.356;-1.524;2022-07-04T15:56:46;2;2;
60245;PMS5003;46107;53.356;-1.524;2022-07-04T15:59:13;1;1;
60245;PMS5003;46107;53.356;-1.524;2022-07-04T16:01:41;1;1;
60245;PMS5003;46107;53.356;-1.524;2022-07-04T16:04:08;4;2;
60245;PMS5003;46107;53.356;-1.524;2022-07-04T16:06:36;1;1;
60245;PMS5003;46107;53.356;-1.524;2022-07-04T16:09:03;0;0;
60245;PMS5003;46107;53.356;-1.524;2022-07-04T16:11:31;3;2;
60245;PMS5003;46107;53.356;-1.524;2022-07-04T16:13:58;0;0;
60245;PMS5003;46107;53.356;-1.524;2022-07-04T16:16:27;1;1;
60245;PMS5003;46107;53.356;-1.524;2022-07-04T16:18:54;1;1;
60245;PMS5003;46107;53.356;-1.524;2022-07-04T16:21:21;1;1;
60245;PMS5003;46107;53.356;-1.524;2022-07-04T16:23:49;2;2;
60245;PMS5003;46107;53.356;-1.524;2022-07-04T16:26:22;1;0;
60245;PMS5003;46107;53.356;-1.524;2022-07-04T16:28:49;1;1;
60245;PMS5003;46107;53.356;-1.524;2022-07-04T16:31:16;1;1;
60245;PMS5003;46107;53.356;-1.524;2022-07-04T16:33:44;2;2;
60245;PMS5003;46107;53.356;-1.524;2022-07-04T16:36:11;0;0;
60245;PMS5003;46107;53.356;-1.524;2022-07-04T16:38:39;4;1;
60245;PMS5003;46107;53.356;-1.524;2022-07-04T16:41:06;0;0;